Portada
METAR-TAF:

METAR-TAF

Aeroports :

Bangkok, Tailàndia

latitud: 13-54-45N, longitud: 100-36-24E, altitud: 4 m

Observació

L'informe es va fer fa 16 minuts, a les 01:30 UTC
Vent 4 kt del Nord-Est, variant entre Nord i Est
Temperatura 28°C
Humitat 70%
Pressió 1014 hPa
Visibilitat 10 km o més
sense núvols per sota de 1500 mi sense presència de cumulonimbus.

METAR: VTBD 260130Z 05004KT 010V100 CAVOK 28/22 Q1014 NOSIG

Hora: 08:46 (01:46 UTC)

Pronòstic

L'informe es va fer fa 2 hores i 46 minuts, a les 23:00 UTC
Pronòstic vàlid del 26 a les 00 UTC al 27 a les 06 UTC
Vent 5 kt del Est/Nord-Est
Visibilitat 10 km o més
Escasses núvols a una alçada de 3000 ft
Evolucionant progressivament
l' 26 a les 10 UTC al 26 a les 12 UTC
Vent 5 kt del Nord
Evolucionant progressivament
l' 27 a les 00 UTC al 27 a les 02 UTC
Vent 5 kt del Est/Nord-Est

TAF: VTBD 252300Z 2600/2706 06005KT 9999 FEW030 BECMG 2610/2612 35005KT BECMG 2700/2702 06005KT

Observacions i pronòstics meteorològics de més de 4000 aeroports (METAR i TAF).

Les estacions disponibles són els punts grocs i vermells al mapa.

Posi el ratolí al punt desitjat per veure el nom de l'estació.

Feu clic per veure les observacions i els pronòstics meteorològics.

Per canviar el mapa: feu clic els botons verds amb una creu de color negre per apropar; al botó verd amb un guió per allunyar la imatge; o en les fletxes verdes per a mapes adjacents.


METAR-TAF: